Upstream stations:
Downstream station:
SHEF ID: OEMO2 Okemah Hwy 56
STATION TYPE:
PRECIP STAGE RIV-FLOW VOLTAGE BAT-LOAD
in ft cfs volt volt
Ccp-Rev Ccp-Rev Ccp-Rev Ccp-Rev Ccp-Rev
(US/Central)
02/26 00:00 0.00 9.47 481 12.81 12.73
02/26 01:00 0.00 9.44 472 12.73 12.65
02/26 02:00 0.00 9.40 460 12.73 12.65
02/26 03:00 0.00 9.35 446 12.73 12.65
02/26 04:00 0.00 9.31 434 12.65 12.65
02/26 05:00 0.00 9.29 428 12.65 12.57
02/26 06:00 0.00 9.28 425 12.65 12.57
02/26 07:00 0.00 9.29 428 12.65 12.57
02/26 08:00 0.00 9.30 431 12.73 12.65
02/26 09:00 0.00 9.33 440 13.05 12.89
02/26 10:00 0.00 9.37 452 13.84 13.29
02/26 11:00 0.00 9.40 460 13.92 13.21
02/26 12:00 0.00 9.42 466 13.76 13.13
02/26 13:00 0.01 9.42 466 13.44 13.05
02/26 14:00 0.14 9.41 463 13.68 13.13
02/26 15:00 0.14 9.40 460 13.44 13.05
02/26 16:00 0.10 9.39 457 14.00 13.05
02/26 17:00 0.07 9.38 454 13.13 13.05
02/26 18:00 0.04 9.37 452 12.97 12.89
02/26 19:00 0.01 9.36 449 12.89 12.81
02/26 20:00 0.00 9.37 452 12.89 12.81
02/26 21:00 0.00 9.38 454 12.81 12.73
02/26 22:00 0.00 9.40 460 12.81 12.73
02/26 23:00 ---- ---- ---- ---- ----